Latest Weather Observations for Lake Grace

IDW60801

Issued at 1:32 pm WST Saturday 1 August 2015 (issued every 30 minutes, with the page automatically refreshed every 10 minutes)

About weather observations | Map of weather stations | Latest weather observations for WA | Other Formats
Station Details ID: 010911 Name: LAKE GRACE Lat: -33.10 Lon: 118.46 Height: 286.0 m
Data from the previous 72 hours. | See also: Recent months at Lake Grace
Date/Time
WST
Temp
°C
App
Temp
°C
Dew
Point
Rel
Hum
%
Delta-T
°C
Wind Press
QNH
hPa
Press
MSL
hPa
Rain
since 9 am
mm
Dir
 
Spd
km/h
Gust
km/h
Spd
kts
Gust
kts
01/01:30pm 11.7 6.7 4.7 62 3.2 SE 20 30 11 16 1024.9 1025.0 0.0
01/01:00pm 11.6 5.9 4.8 63 3.1 SE 24 33 13 18 1024.9 1025.0 0.0
01/12:30pm 11.7 7.1 5.6 66 2.9 SE 19 33 10 18 1024.8 1024.9 0.0
01/12:00pm 11.2 5.2 5.5 68 2.7 SE 26 43 14 23 1025.1 1025.2 0.0
01/11:30am 11.0 5.1 6.0 71 2.4 SE 26 35 14 19 1025.1 1025.2 0.0
01/11:00am 10.8 6.2 6.6 75 2.0 SE 20 33 11 18 1025.1 1025.2 0.0
01/10:30am 10.4 5.0 6.4 76 1.9 SE 24 37 13 20 1024.9 1025.0 0.0
01/10:00am 10.1 4.7 6.4 78 1.7 SE 24 39 13 21 1024.4 1024.5 0.0
01/09:30am 9.5 5.0 6.8 83 1.3 SE 20 35 11 19 1024.0 1024.2 0.0
01/09:00am 9.4 4.5 7.0 85 1.1 SSE 22 39 12 21 1023.5 1023.7 42.4
01/08:30am 9.1 3.5 7.2 88 0.9 SE 26 41 14 22 1022.8 1022.9 42.4
01/08:00am 9.1 4.8 7.7 91 0.7 SE 20 32 11 17 1022.2 1022.3 42.4
01/07:30am 9.2 4.6 8.1 93 0.5 SE 22 32 12 17 1021.6 1021.8 42.2
01/07:00am 9.2 5.0 8.3 94 0.4 SE 20 30 11 16 1021.4 1021.6 42.2
01/06:30am 9.2 5.2 8.4 95 0.4 SE 19 28 10 15 1021.0 1021.2 42.0
01/06:00am 9.2 5.0 8.4 95 0.4 SE 20 32 11 17 1020.6 1020.8 42.0
01/05:30am 9.4 5.3 8.5 94 0.4 SE 20 35 11 19 1020.2 1020.5 41.8
01/05:00am 9.5 6.3 8.6 94 0.4 SE 15 28 8 15 1019.8 1020.0 41.4
01/04:30am 9.5 6.0 8.6 94 0.4 SE 17 26 9 14 1019.6 1019.8 41.2
01/04:00am 9.6 5.7 8.5 93 0.5 SE 19 28 10 15 1019.4 1019.6 40.8
01/03:30am 9.5 4.5 8.1 91 0.7 SE 24 35 13 19 1019.0 1019.2 40.2
01/03:00am 9.5 5.3 8.3 92 0.6 SE 20 35 11 19 1018.9 1019.1 39.6
01/02:30am 9.3 4.3 7.9 91 0.7 SE 24 37 13 20 1018.5 1018.7 39.0
01/02:00am 9.4 4.0 8.2 92 0.6 SE 26 39 14 21 1018.4 1018.6 38.4
01/01:30am 9.7 4.4 8.5 92 0.6 SE 26 39 14 21 1018.0 1018.2 37.4
01/01:00am 9.8 4.2 8.7 93 0.5 SE 28 43 15 23 1017.8 1018.0 37.2
01/12:30am 9.8 4.2 8.9 94 0.4 SE 28 44 15 24 1017.5 1017.7 36.8
01/12:00am 9.8 4.3 9.0 95 0.4 SE 28 43 15 23 1017.4 1017.6 35.0
 
Date/Time
WST
Temp
°C
App
Temp
°C
Dew
Point
Rel
Hum
%
Delta-T
°C
Wind Press
QNH
hPa
Press
MSL
hPa
Rain
since 9 am
mm
Dir
 
Spd
km/h
Gust
km/h
Spd
kts
Gust
kts
31/11:37pm 9.9 4.4 9.1 95 0.4 SE 28 48 15 26 1017.3 1017.5 33.8
31/11:30pm 9.9 4.4 9.1 95 0.4 SE 28 39 15 21 1017.2 1017.4 33.4
31/11:00pm 9.9 3.7 9.3 96 0.3 SE 32 46 17 25 1017.0 1017.1 31.4
31/10:30pm 10.4 4.7 9.8 96 0.3 SE 30 43 16 23 1016.7 1016.9 29.2
31/10:00pm 10.7 6.2 10.1 96 0.3 SE 24 35 13 19 1016.5 1016.7 25.4
31/09:30pm 11.0 6.2 10.2 95 0.4 SE 26 37 14 20 1016.5 1016.7 20.4
31/09:00pm 11.2 6.8 10.4 95 0.4 SE 24 41 13 22 1015.8 1016.0 18.6
31/08:38pm 11.2 6.0 10.4 95 0.4 SE 28 48 15 26 1015.2 1015.4 17.8
31/08:30pm 11.4 7.1 10.6 95 0.4 SE 24 37 13 20 1015.3 1015.5 17.8
31/08:05pm 11.6 6.5 10.7 94 0.5 SE 28 50 15 27 1015.0 1015.2 17.8
31/08:00pm 11.7 7.4 10.8 94 0.5 SE 24 50 13 27 1015.1 1015.3 17.8
31/07:31pm 11.8 6.8 11.0 95 0.4 ESE 28 48 15 26 1014.3 1014.5 17.6
31/07:30pm 11.8 7.2 11.0 95 0.4 ESE 26 44 14 24 1014.2 1014.4 17.6
31/07:25pm 11.8 6.8 11.0 95 0.4 ESE 28 48 15 26 1014.0 1014.1 17.6
31/07:00pm 11.9 7.4 11.3 96 0.3 ESE 26 41 14 22 1013.8 1013.9 17.6
31/06:30pm 12.0 6.4 11.4 96 0.3 ESE 32 50 17 27 1013.0 1013.2 16.8
31/06:27pm 12.0 6.7 11.4 96 0.3 ESE 30 50 16 27 1013.3 1013.4 16.6
31/06:00pm 12.1 8.0 11.3 95 0.4 SE 24 35 13 19 1014.7 1014.9 14.0
31/05:30pm 12.2 8.1 11.4 95 0.4 SE 24 33 13 18 1013.7 1013.8 10.8
31/05:00pm 12.6 9.0 11.7 94 0.5 SE 22 32 12 17 1013.3 1013.4 8.0
31/04:30pm 12.8 8.8 11.9 94 0.5 ESE 24 35 13 19 1012.9 1013.1 8.0
31/04:00pm 12.9 8.2 12.1 95 0.4 ESE 28 39 15 21 1012.7 1012.9 8.0
31/03:30pm 13.0 8.4 12.4 96 0.3 SE 28 41 15 22 1012.2 1012.4 8.0
31/03:00pm 13.7 10.9 13.1 96 0.3 SE 20 28 11 15 1012.8 1013.0 7.8
31/02:30pm 13.4 11.7 12.6 95 0.4 SSE 13 19 7 10 1012.8 1013.0 7.8
31/02:00pm 13.3 10.4 12.2 93 0.6 SSE 19 30 10 16 1012.9 1013.1 4.2
31/01:30pm 15.9 15.2 14.3 90 0.9 NNW 11 17 6 9 1012.0 1012.2 0.2
31/01:00pm 15.9 15.2 14.3 90 0.9 NNW 11 13 6 7 1012.6 1012.8 0.2
31/12:30pm 15.7 14.6 14.4 92 0.8 NNW 13 19 7 10 1012.9 1013.1 0.2
31/12:00pm 15.6 15.8 14.6 94 0.6 NNW 7 11 4 6 1013.5 1013.6 0.2
31/11:30am 15.5 14.9 14.5 94 0.6 NW 11 17 6 9 1014.1 1014.3 0.2
31/11:00am 15.5 15.2 14.4 93 0.6 N 9 13 5 7 1014.1 1014.3 0.2
31/10:30am 15.6 15.3 14.5 93 0.6 NW 9 13 5 7 1014.7 1014.9 0.0
31/10:00am 15.3 15.5 14.3 94 0.6 WNW 6 7 3 4 1015.1 1015.3 0.0
31/09:30am 15.0 14.6 14.0 94 0.6 NW 9 19 5 10 1015.0 1015.2 0.0
31/09:00am 14.8 14.0 14.0 95 0.5 NNW 11 17 6 9 1014.0 1014.1 3.0
31/08:30am 14.4 13.5 13.6 95 0.5 N 11 17 6 9 1013.5 1013.6 3.0
31/08:00am 14.2 13.2 13.4 95 0.4 NNW 11 17 6 9 1014.9 1015.1 2.4
31/07:30am 14.0 12.9 13.2 95 0.4 NNW 11 13 6 7 1014.5 1014.7 1.8
31/07:00am 14.1 12.7 13.3 95 0.4 NNW 13 19 7 10 1013.7 1013.8 1.8
31/06:30am 13.9 12.8 13.1 95 0.4 NNW 11 17 6 9 1014.2 1014.4 1.8
31/06:00am 13.6 12.4 12.8 95 0.4 N 11 17 6 9 1013.2 1013.3 1.8
31/05:30am 13.6 11.6 12.8 95 0.4 N 15 19 8 10 1012.9 1013.1 1.8
31/05:00am 13.8 11.5 13.0 95 0.4 N 17 22 9 12 1013.8 1013.9 1.8
31/04:30am 13.8 11.9 13.0 95 0.4 N 15 20 8 11 1013.8 1013.9 1.8
31/04:00am 13.9 11.6 13.1 95 0.4 N 17 24 9 13 1014.4 1014.6 1.8
31/03:30am 13.6 10.9 12.8 95 0.4 N 19 22 10 12 1014.5 1014.7 1.8
31/03:00am 13.7 12.5 12.8 94 0.5 NNE 11 17 6 9 1014.8 1015.0 1.6
31/02:52am 13.7 12.0 12.6 93 0.6 NNE 13 17 7 9 1014.2 1014.4 1.6
31/02:30am 14.1 12.5 12.7 91 0.8 NNW 13 19 7 10 1016.2 1016.4 0.6
31/02:00am 14.4 12.7 12.4 88 1.1 NW 13 19 7 10 1015.3 1015.5 0.4
31/01:30am 14.5 14.0 12.5 88 1.1 WNW 7 15 4 8 1015.0 1015.2 0.4
31/01:00am 14.4 10.3 12.6 89 1.0 N 26 33 14 18 1014.8 1015.0 0.4
31/12:30am 14.5 12.6 13.0 91 0.8 N 15 20 8 11 1015.6 1015.8 0.4
31/12:00am 14.5 13.4 13.0 91 0.8 NNW 11 17 6 9 1016.5 1016.7 0.4
 
Date/Time
WST
Temp
°C
App
Temp
°C
Dew
Point
Rel
Hum
%
Delta-T
°C
Wind Press
QNH
hPa
Press
MSL
hPa
Rain
since 9 am
mm
Dir
 
Spd
km/h
Gust
km/h
Spd
kts
Gust
kts
30/11:30pm 14.5 12.3 13.2 92 0.7 NNW 17 24 9 13 1016.7 1016.9 0.4
30/11:00pm 14.6 12.8 13.3 92 0.7 NNW 15 20 8 11 1017.1 1017.3 0.4
30/10:30pm 14.9 12.9 13.8 93 0.6 NNW 17 22 9 12 1017.3 1017.5 0.4
30/10:00pm 14.8 13.5 13.8 94 0.6 N 13 19 7 10 1017.8 1018.0 0.4
30/09:30pm 15.0 13.1 14.2 95 0.5 N 17 20 9 11 1017.8 1018.0 0.4
30/09:00pm 15.2 14.2 14.6 96 0.3 N 13 19 7 10 1017.3 1017.5 0.4
30/08:30pm 15.4 13.3 14.8 96 0.3 N 19 20 10 11 1017.5 1017.7 0.4
30/08:00pm 15.5 13.9 14.9 96 0.3 N 17 20 9 11 1018.1 1018.3 0.4
30/07:30pm 15.7 14.5 15.1 96 0.4 N 15 19 8 10 1018.6 1018.8 0.4
30/07:00pm 15.6 14.4 15.0 96 0.3 N 15 17 8 9 1018.8 1019.0 0.4
30/06:30pm 15.3 15.1 14.7 96 0.3 N 9 13 5 7 1018.7 1018.9 0.4
30/06:00pm 15.6 15.4 14.8 95 0.5 NNE 9 13 5 7 1018.0 1018.2 0.4
30/05:30pm 16.0 15.2 15.2 95 0.5 N 13 17 7 9 1018.6 1018.8 0.4
30/05:00pm 16.2 16.3 15.4 95 0.5 NNE 9 13 5 7 1018.6 1018.8 0.4
30/04:30pm 16.2 16.6 15.4 95 0.5 NNE 7 9 4 5 1018.7 1018.9 0.4
30/04:00pm 16.2 16.6 15.2 94 0.6 NNE 7 11 4 6 1019.0 1019.2 0.4
30/03:30pm 16.2 16.1 14.9 92 0.8 N 9 13 5 7 1019.3 1019.5 0.4
30/03:00pm 16.3 16.1 14.7 90 0.9 NNE 9 15 5 8 1019.3 1019.5 0.4
30/02:30pm 16.9 15.7 14.0 83 1.7 NNE 13 17 7 9 1019.6 1019.8 0.2
30/02:00pm 16.6 16.1 13.9 84 1.5 NE 9 13 5 7 1019.7 1019.9 0.2
30/01:30pm 16.1 15.1 13.4 84 1.5 NE 11 15 6 8 1020.2 1020.5 0.2
30/01:00pm 15.7 14.3 13.4 86 1.3 ENE 13 17 7 9 1020.7 1020.9 0.2
30/12:30pm 15.3 14.3 13.5 89 1.0 ENE 11 17 6 9 1021.2 1021.4 0.2
30/12:00pm 14.4 12.9 13.1 92 0.7 E 13 20 7 11 1021.4 1021.6 0.2
30/11:30am 14.3 13.2 13.2 93 0.6 ENE 11 15 6 8 1022.0 1022.2 0.2
30/11:00am 14.0 13.3 13.2 95 0.4 ENE 9 13 5 7 1022.5 1022.7 0.0
30/10:30am 13.4 11.8 12.8 96 0.3 ENE 13 19 7 10 1022.7 1022.9 0.0
30/10:00am 13.0 11.0 12.7 98 0.2 E 15 20 8 11 1022.6 1022.8 0.0
30/09:30am 12.5 10.3 12.2 98 0.2 E 15 22 8 12 1022.3 1022.5 0.0
30/09:00am 12.4 11.0 12.2 99 0.1 ENE 11 17 6 9 1022.5 1022.7 0.0
30/08:30am 12.4 11.4 12.2 99 0.1 ENE 9 15 5 8 1022.4 1022.6 0.0
30/08:00am 12.1 12.3 11.9 99 0.1 E 2 9 1 5 1022.1 1022.3 0.0
30/07:30am 11.5 11.9 11.3 99 0.1 CALM 0 0 0 0 1022.1 1022.3 0.0
30/07:00am 11.3 11.7 11.1 99 0.1 CALM 0 0 0 0 1022.1 1022.3 0.0
30/06:30am 11.0 10.5 10.8 99 0.1 SE 4 7 2 4 1021.5 1021.7 0.0
30/06:00am 11.0 10.1 10.8 99 0.1 NE 6 9 3 5 1021.1 1021.3 0.0
30/05:30am 11.2 10.2 11.0 99 0.1 N 7 9 4 5 1021.3 1021.5 0.0
30/05:00am 11.5 11.5 11.3 99 0.1 SSE 2 7 1 4 1021.0 1021.2 0.0
30/04:30am 11.0 11.2 10.7 98 0.2 CALM 0 0 0 0 1021.0 1021.2 0.0
30/04:00am 11.3 11.6 11.0 98 0.2 CALM 0 0 0 0 1020.8 1021.0 0.0
30/03:30am 11.6 12.0 11.3 98 0.2 CALM 0 0 0 0 1021.1 1021.3 0.0
30/03:00am 11.7 10.8 11.4 98 0.2 ESE 7 9 4 5 1020.9 1021.1 0.0
30/02:30am 11.8 11.1 11.5 98 0.2 SE 6 7 3 4 1021.1 1021.3 0.0
30/02:00am 11.6 12.0 11.3 98 0.2 CALM 0 4 0 2 1021.1 1021.3 0.0
30/01:30am 11.6 10.9 11.3 98 0.2 N 6 7 3 4 1021.1 1021.3 0.0
30/01:00am 11.7 10.8 11.4 98 0.2 N 7 11 4 6 1021.2 1021.4 0.0
30/12:30am 11.7 11.0 11.4 98 0.2 N 6 9 3 5 1021.0 1021.2 0.0
30/12:00am 11.0 9.9 10.5 97 0.3 NNW 7 11 4 6 1020.9 1021.1 0.0
 
Date/Time
WST
Temp
°C
App
Temp
°C
Dew
Point
Rel
Hum
%
Delta-T
°C
Wind Press
QNH
hPa
Press
MSL
hPa
Rain
since 9 am
mm
Dir
 
Spd
km/h
Gust
km/h
Spd
kts
Gust
kts
29/11:30pm 11.3 9.9 10.8 97 0.3 N 9 11 5 6 1020.8 1021.0 0.0
29/11:00pm 11.4 10.4 10.9 97 0.3 NNE 7 9 4 5 1020.8 1021.0 0.0
29/10:30pm 11.4 10.3 10.8 96 0.3 N 7 9 4 5 1020.7 1020.9 0.0
29/10:00pm 11.2 9.7 10.6 96 0.3 N 9 13 5 7 1020.6 1020.8 0.0
29/09:30pm 11.1 9.5 10.3 95 0.4 NNW 9 11 5 6 1020.9 1021.1 0.0
29/09:00pm 11.8 11.0 11.0 95 0.4 N 6 9 3 5 1020.6 1020.8 0.0
29/08:30pm 12.1 10.8 11.2 94 0.5 N 9 11 5 6 1020.4 1020.7 0.0
29/08:00pm 12.6 11.4 11.5 93 0.6 N 9 15 5 8 1020.0 1020.3 0.0
29/07:30pm 13.3 12.8 11.9 91 0.8 N 6 7 3 4 1020.2 1020.5 0.0
29/07:00pm 14.3 13.3 12.3 88 1.1 NNW 9 11 5 6 1019.7 1019.9 0.0
29/06:30pm 15.0 14.1 12.7 86 1.3 NNW 9 13 5 7 1019.6 1019.8 0.0
29/06:00pm 15.3 13.8 13.0 86 1.3 NNW 13 17 7 9 1019.0 1019.2 0.0
29/05:30pm 15.5 13.9 12.8 84 1.5 NNW 13 19 7 10 1018.6 1018.8 0.0
29/05:00pm 15.9 14.2 12.6 81 1.8 NW 13 20 7 11 1018.3 1018.5 0.0
29/04:30pm 16.1 14.5 12.7 80 1.9 NW 13 20 7 11 1018.4 1018.6 0.0
29/04:00pm 16.5 14.5 12.7 78 2.1 NNW 15 22 8 12 1018.1 1018.3 0.0
29/03:30pm 16.7 14.3 12.7 77 2.2 NW 17 26 9 14 1018.2 1018.4 0.0
29/03:00pm 16.4 14.4 12.8 79 2.0 NNW 15 22 8 12 1018.1 1018.3 0.0
29/02:30pm 16.7 15.1 12.7 77 2.2 NW 13 20 7 11 1017.7 1017.9 0.0
29/02:00pm 16.3 13.5 12.5 78 2.1 NW 19 30 10 16 1017.7 1017.9 0.0

Other Formats:

Comma delimited format used in spreadsheet applications
http://www.bom.gov.au/fwo/IDW60801/IDW60801.95637.axf

JavaScript Object Notation format (JSON) in row-major order
http://www.bom.gov.au/fwo/IDW60801/IDW60801.95637.json